createdAt,value
2023-02-15T00:00:12.301Z,66.05
2023-02-15T00:05:08.100Z,63.58
2023-02-15T00:07:35.835Z,61.28
2023-02-15T00:10:02.957Z,66.18
2023-02-15T00:12:29.965Z,60.05
2023-02-15T00:14:56.908Z,60.42
2023-02-15T00:17:24.958Z,57.80
2023-02-15T00:19:52.000Z,69.18
2023-02-15T00:22:18.995Z,63.47
2023-02-15T00:24:45.921Z,61.53
2023-02-15T00:27:12.899Z,61.63
2023-02-15T00:29:39.953Z,69.45
2023-02-15T00:32:07.370Z,73.40
2023-02-15T00:34:34.462Z,68.50
2023-02-15T00:37:01.947Z,65.65
2023-02-15T00:39:30.158Z,58.53
2023-02-15T00:41:57.373Z,59.90
2023-02-15T00:44:24.329Z,64.28
2023-02-15T00:46:51.393Z,70.32
2023-02-15T00:49:18.984Z,64.22
2023-02-15T00:51:46.092Z,63.22
2023-02-15T00:54:12.974Z,65.82
2023-02-15T00:56:39.844Z,65.97
2023-02-15T00:59:07.525Z,62.88
2023-02-15T01:01:36.016Z,61.88
2023-02-15T01:04:04.789Z,66.28
2023-02-15T01:06:34.406Z,70.60
2023-02-15T01:09:01.317Z,62.85
2023-02-15T01:11:28.221Z,69.93
2023-02-15T01:13:57.942Z,67.05
2023-02-15T01:16:28.775Z,61.60
2023-02-15T01:18:56.632Z,69.10
2023-02-15T01:21:26.023Z,76.03
2023-02-15T01:23:53.501Z,68.07
2023-02-15T01:26:23.579Z,73.28
2023-02-15T01:28:50.518Z,73.25
2023-02-15T01:31:20.376Z,77.18
2023-02-15T01:33:48.846Z,63.95
2023-02-15T01:36:17.727Z,69.35
2023-02-15T01:38:44.721Z,67.20
2023-02-15T01:41:29.799Z,71.03
2023-02-15T01:44:01.878Z,72.50
2023-02-15T01:49:20.816Z,67.65
2023-02-15T01:51:51.299Z,67.82
2023-02-15T01:54:25.896Z,66.40
2023-02-15T01:56:55.867Z,71.00
2023-02-15T01:59:25.871Z,70.88
2023-02-15T02:04:42.442Z,60.10
2023-02-15T02:07:11.575Z,65.28
2023-02-15T02:09:39.736Z,66.22
2023-02-15T02:12:09.709Z,69.15
2023-02-15T02:14:38.850Z,70.32
2023-02-15T02:17:24.440Z,77.32
2023-02-15T02:20:25.542Z,62.17
2023-02-15T02:23:01.446Z,58.78
2023-02-15T02:26:06.118Z,60.75
2023-02-15T02:28:44.946Z,69.32
2023-02-15T02:31:45.789Z,70.50
2023-02-15T02:34:34.570Z,62.83
2023-02-15T02:37:25.905Z,69.03
2023-02-15T02:40:35.782Z,65.15
2023-02-15T02:43:12.058Z,67.93
2023-02-15T02:45:56.097Z,66.70
2023-02-15T02:48:28.081Z,72.95
2023-02-15T02:53:25.447Z,73.80
2023-02-15T02:55:57.184Z,70.95
2023-02-15T02:59:00.928Z,69.03
2023-02-15T03:01:43.879Z,67.13
2023-02-15T03:04:16.974Z,75.40
2023-02-15T03:06:49.495Z,72.53
2023-02-15T03:09:25.921Z,63.67
2023-02-15T03:11:53.031Z,68.97
2023-02-15T03:14:22.213Z,62.70
2023-02-15T03:16:51.321Z,69.55
2023-02-15T03:19:24.793Z,66.65
2023-02-15T03:21:59.153Z,67.05
2023-02-15T03:24:38.284Z,70.63
2023-02-15T03:27:12.371Z,69.18
2023-02-15T03:29:40.843Z,69.38
2023-02-15T03:32:11.527Z,71.75
2023-02-15T03:34:38.941Z,62.70
2023-02-15T03:37:36.691Z,77.75
2023-02-15T03:40:42.690Z,71.22
2023-02-15T03:43:33.019Z,69.97
2023-02-15T03:46:13.461Z,66.43
2023-02-15T03:48:50.736Z,69.13
2023-02-15T03:51:36.464Z,63.97
2023-02-15T03:54:11.196Z,62.17
2023-02-15T03:56:41.699Z,63.08
2023-02-15T03:59:27.790Z,64.18
2023-02-15T04:02:00.737Z,65.05
2023-02-15T04:04:44.277Z,67.35
2023-02-15T04:07:11.577Z,74.38
2023-02-15T04:09:56.894Z,64.03
2023-02-15T04:12:24.789Z,59.72
2023-02-15T04:15:10.328Z,59.35
2023-02-15T04:17:38.834Z,69.57
2023-02-15T04:20:26.780Z,65.53
2023-02-15T04:23:13.295Z,63.42
2023-02-15T04:25:40.360Z,65.05
2023-02-15T04:28:08.791Z,63.33
2023-02-15T04:30:36.456Z,69.30
2023-02-15T04:33:03.500Z,74.30
2023-02-15T04:35:32.793Z,66.40
2023-02-15T04:38:00.026Z,61.92
2023-02-15T04:40:27.168Z,62.35
2023-02-15T04:42:54.132Z,67.20
2023-02-15T04:45:21.185Z,69.88
2023-02-15T04:47:48.235Z,66.47
2023-02-15T04:50:15.351Z,61.85
2023-02-15T04:52:42.265Z,66.15
2023-02-15T04:55:09.846Z,70.72
2023-02-15T04:57:37.177Z,63.60
2023-02-15T05:00:04.588Z,68.20
2023-02-15T05:02:31.593Z,69.93
2023-02-15T05:04:58.588Z,67.35
2023-02-15T05:07:26.364Z,70.32
2023-02-15T05:09:53.696Z,69.18
2023-02-15T05:12:20.615Z,64.75
2023-02-15T05:14:47.616Z,72.55
2023-02-15T05:17:14.532Z,69.38
2023-02-15T05:19:42.285Z,75.50
2023-02-15T05:22:09.168Z,69.30
2023-02-15T05:24:59.796Z,75.70
2023-02-15T05:27:45.538Z,76.57
2023-02-15T05:30:13.280Z,68.15
2023-02-15T05:32:40.538Z,76.97
2023-02-15T05:35:09.128Z,70.72
2023-02-15T05:37:36.782Z,76.80
2023-02-15T05:40:03.815Z,66.85
2023-02-15T05:42:30.755Z,67.70
2023-02-15T05:44:57.694Z,70.43
2023-02-15T05:47:24.799Z,65.22
2023-02-15T05:49:51.881Z,69.15
2023-02-15T05:52:19.144Z,77.75
2023-02-15T05:54:46.348Z,71.03
2023-02-15T05:57:14.490Z,68.85
2023-02-15T05:59:43.146Z,75.53
2023-02-15T06:02:10.177Z,69.25
2023-02-15T06:04:37.208Z,75.68
2023-02-15T06:07:04.101Z,66.32
2023-02-15T06:09:32.370Z,75.28
2023-02-15T06:11:59.597Z,77.50
2023-02-15T06:14:26.756Z,72.90
2023-02-15T06:16:53.983Z,71.07
2023-02-15T06:19:23.874Z,70.53
2023-02-15T06:21:51.283Z,75.63
2023-02-15T06:24:19.370Z,69.43
2023-02-15T06:26:46.400Z,67.97
2023-02-15T06:29:14.757Z,67.18
2023-02-15T06:31:41.784Z,69.60
2023-02-15T06:34:10.524Z,71.45
2023-02-15T06:36:37.899Z,79.30
2023-02-15T06:39:08.815Z,70.07
2023-02-15T06:41:35.881Z,68.38
2023-02-15T06:44:02.932Z,69.45
2023-02-15T06:46:30.012Z,69.50
2023-02-15T06:48:57.010Z,77.90
2023-02-15T06:51:23.915Z,76.57
2023-02-15T06:53:51.029Z,79.45
2023-02-15T06:56:17.963Z,83.38
2023-02-15T06:58:47.069Z,84.03
2023-02-15T07:01:14.064Z,90.68
2023-02-15T07:03:41.153Z,77.32
2023-02-15T07:06:09.897Z,89.00
2023-02-15T07:08:37.566Z,80.30
2023-02-15T07:11:23.998Z,82.45
2023-02-15T07:13:51.906Z,91.28
2023-02-15T07:16:19.394Z,74.30
2023-02-15T07:18:46.575Z,82.65
2023-02-15T07:21:13.856Z,86.28
2023-02-15T07:23:41.064Z,69.75
2023-02-15T07:26:08.674Z,77.43
2023-02-15T07:28:37.448Z,87.93
2023-02-15T07:31:05.697Z,91.03
2023-02-15T07:33:33.598Z,88.30
2023-02-15T07:36:03.691Z,90.22
2023-02-15T07:38:36.326Z,72.40
2023-02-15T07:41:07.480Z,73.18
2023-02-15T07:43:36.460Z,78.20
2023-02-15T07:46:05.797Z,77.05
2023-02-15T07:48:34.956Z,79.60
2023-02-15T07:51:04.748Z,83.15
2023-02-15T07:53:33.899Z,86.75
2023-02-15T07:56:02.884Z,83.30
2023-02-15T07:58:48.664Z,69.85
2023-02-15T08:01:15.998Z,76.88
2023-02-15T08:03:42.982Z,74.93
2023-02-15T08:06:12.466Z,75.78
2023-02-15T08:08:39.591Z,66.13
2023-02-15T08:11:26.508Z,72.80
2023-02-15T08:13:57.400Z,81.68
2023-02-15T08:16:38.646Z,71.65
2023-02-15T08:19:15.571Z,69.23
2023-02-15T08:21:57.975Z,75.63
2023-02-15T08:24:27.012Z,77.18
2023-02-15T08:26:54.622Z,66.15
2023-02-15T08:29:30.412Z,66.95
2023-02-15T08:32:04.667Z,75.63
2023-02-15T08:34:37.776Z,70.70
2023-02-15T08:37:05.037Z,79.50
2023-02-15T08:39:32.091Z,67.72
2023-02-15T08:42:00.328Z,71.97
2023-02-15T08:44:27.368Z,69.45
2023-02-15T08:46:55.720Z,66.13
2023-02-15T08:49:25.113Z,65.25
2023-02-15T08:51:52.127Z,59.28
2023-02-15T08:54:25.302Z,67.25
2023-02-15T08:56:52.682Z,60.85
2023-02-15T08:59:24.261Z,56.55
2023-02-15T09:01:52.972Z,56.72
2023-02-15T09:04:21.259Z,51.10
2023-02-15T09:06:50.005Z,58.88
2023-02-15T09:09:18.860Z,49.85
2023-02-15T09:11:53.399Z,50.00
2023-02-15T09:14:24.524Z,51.95
2023-02-15T09:16:54.208Z,50.70
2023-02-15T09:19:23.570Z,50.53
2023-02-15T09:21:52.915Z,48.28
2023-02-15T09:24:20.102Z,47.72
2023-02-15T09:26:48.998Z,47.83
2023-02-15T09:29:17.384Z,45.55
2023-02-15T09:31:47.258Z,43.70
2023-02-15T09:34:18.425Z,43.83
2023-02-15T09:36:45.827Z,47.85
2023-02-15T09:39:24.846Z,46.78
2023-02-15T09:41:54.942Z,48.63
2023-02-15T09:44:40.916Z,46.95
2023-02-15T09:47:23.429Z,48.78
2023-02-15T09:50:23.531Z,46.85
2023-02-15T09:53:28.032Z,45.60
2023-02-15T09:55:57.965Z,40.15
2023-02-15T09:58:46.293Z,38.78
2023-02-15T10:01:23.833Z,41.67
2023-02-15T10:04:17.577Z,42.17
2023-02-15T10:07:14.005Z,45.28
2023-02-15T10:10:11.532Z,37.85
2023-02-15T10:12:48.930Z,41.55
2023-02-15T10:15:20.210Z,39.17
2023-02-15T10:17:59.048Z,43.58
2023-02-15T10:20:27.466Z,38.42
2023-02-15T10:22:54.479Z,44.17
2023-02-15T10:25:48.342Z,36.45
2023-02-15T10:28:29.526Z,37.90
2023-02-15T10:31:16.500Z,40.63
2023-02-15T10:33:46.816Z,37.28
2023-02-15T10:36:44.820Z,35.25
2023-02-15T10:39:47.996Z,37.17
2023-02-15T10:42:40.049Z,38.53
2023-02-15T10:45:25.119Z,38.10
2023-02-15T10:48:14.116Z,37.63
2023-02-15T10:50:54.010Z,39.72
2023-02-15T10:53:42.688Z,35.88
2023-02-15T10:56:54.214Z,33.58
2023-02-15T10:59:50.194Z,35.50
2023-02-15T11:02:47.363Z,34.17
2023-02-15T11:05:50.170Z,35.45
2023-02-15T11:10:53.837Z,37.47
2023-02-15T11:13:25.088Z,37.40
2023-02-15T11:16:11.772Z,36.15
2023-02-15T11:18:44.486Z,38.60
2023-02-15T11:21:40.250Z,35.20
2023-02-15T11:24:17.744Z,41.58
2023-02-15T11:27:05.536Z,36.63
2023-02-15T11:29:51.939Z,35.20
2023-02-15T11:32:27.312Z,37.83
2023-02-15T11:35:15.442Z,42.05
2023-02-15T11:37:49.895Z,35.05
2023-02-15T11:40:31.378Z,31.40
2023-02-15T11:43:03.509Z,34.75
2023-02-15T11:48:01.254Z,34.90
2023-02-15T11:50:34.200Z,36.40
2023-02-15T11:53:07.230Z,33.17
2023-02-15T11:55:36.199Z,34.53
2023-02-15T11:58:41.046Z,33.63
2023-02-15T12:01:24.154Z,36.50
2023-02-15T12:04:19.179Z,36.38
2023-02-15T12:07:13.582Z,37.47
2023-02-15T12:10:16.134Z,33.15
2023-02-15T12:12:43.437Z,37.03
2023-02-15T12:15:12.984Z,36.67
2023-02-15T12:17:55.583Z,35.80
2023-02-15T12:20:37.354Z,33.97
2023-02-15T12:23:12.372Z,36.58
2023-02-15T12:25:55.879Z,34.20
2023-02-15T12:28:34.246Z,35.40
2023-02-15T12:31:04.734Z,32.42
2023-02-15T12:33:47.071Z,32.53
2023-02-15T12:36:19.910Z,39.85
2023-02-15T12:39:18.050Z,35.05
2023-02-15T12:42:16.964Z,36.92
2023-02-15T12:45:03.117Z,32.05
2023-02-15T12:47:33.520Z,35.53
2023-02-15T12:50:18.203Z,39.00
2023-02-15T12:52:48.699Z,33.10
2023-02-15T12:55:30.780Z,34.30
2023-02-15T12:58:09.064Z,33.65
2023-02-15T13:00:36.846Z,35.67
2023-02-15T13:03:04.840Z,36.33
2023-02-15T13:05:44.141Z,33.72
2023-02-15T13:08:15.220Z,43.22
2023-02-15T13:10:54.293Z,31.23
2023-02-15T13:13:24.965Z,32.42
2023-02-15T13:15:55.372Z,36.80
2023-02-15T13:18:36.989Z,38.40
2023-02-15T13:21:27.752Z,38.53
2023-02-15T13:24:01.012Z,36.75
2023-02-15T13:26:33.081Z,39.17
2023-02-15T13:29:09.563Z,34.70
2023-02-15T13:31:38.005Z,38.10
2023-02-15T13:34:26.312Z,39.92
2023-02-15T13:37:31.991Z,30.80
2023-02-15T13:40:04.758Z,40.22
2023-02-15T13:42:46.895Z,37.75
2023-02-15T13:45:32.002Z,42.67
2023-02-15T13:48:05.557Z,41.58
2023-02-15T13:50:48.384Z,38.95
2023-02-15T13:53:36.261Z,37.47
2023-02-15T13:56:20.635Z,35.15
2023-02-15T13:59:27.116Z,36.78
2023-02-15T14:02:05.465Z,40.35
2023-02-15T14:04:50.395Z,37.42
2023-02-15T14:07:42.557Z,38.63
2023-02-15T14:10:28.162Z,40.35
2023-02-15T14:13:19.772Z,34.17
2023-02-15T14:16:11.859Z,33.20
2023-02-15T14:18:45.103Z,37.10
2023-02-15T14:21:34.570Z,34.38
2023-02-15T14:24:09.347Z,34.22
2023-02-15T14:26:51.870Z,39.65
2023-02-15T14:29:22.155Z,34.78
2023-02-15T14:31:55.483Z,34.25
2023-02-15T14:34:27.016Z,35.88
2023-02-15T14:36:55.058Z,40.30
2023-02-15T14:40:15.856Z,39.67
2023-02-15T14:43:24.534Z,39.53
2023-02-15T14:46:13.920Z,35.13
2023-02-15T14:48:48.820Z,35.95
2023-02-15T14:51:44.149Z,42.22
2023-02-15T14:54:34.134Z,39.08
2023-02-15T14:57:04.106Z,38.47
2023-02-15T15:00:00.777Z,39.15
2023-02-15T15:02:49.549Z,44.45
2023-02-15T15:05:37.385Z,41.80
2023-02-15T15:08:06.279Z,47.60
2023-02-15T15:10:40.722Z,41.08
2023-02-15T15:13:33.716Z,43.55
2023-02-15T15:16:31.551Z,46.13
2023-02-15T15:19:00.616Z,45.72
2023-02-15T15:21:49.457Z,47.55
2023-02-15T15:24:38.557Z,45.47
2023-02-15T15:27:45.199Z,42.30
2023-02-15T15:30:18.602Z,40.45
2023-02-15T15:32:54.848Z,42.63
2023-02-15T15:35:29.307Z,40.88
2023-02-15T15:38:30.244Z,50.22
2023-02-15T15:41:20.961Z,38.47
2023-02-15T15:44:26.038Z,48.47
2023-02-15T15:47:10.791Z,41.53
2023-02-15T15:49:39.823Z,49.40
2023-02-15T15:52:28.820Z,48.55
2023-02-15T15:55:06.484Z,41.08
2023-02-15T15:57:39.324Z,51.47
2023-02-15T16:00:22.767Z,46.30
2023-02-15T16:02:55.858Z,45.75
2023-02-15T16:05:23.590Z,52.38
2023-02-15T16:07:51.084Z,50.80
2023-02-15T16:10:27.335Z,47.70
2023-02-15T16:12:55.887Z,54.10
2023-02-15T16:15:32.238Z,59.08
2023-02-15T16:18:00.699Z,50.45
2023-02-15T16:20:32.464Z,50.65
2023-02-15T16:23:32.042Z,51.05
2023-02-15T16:26:19.872Z,51.95
2023-02-15T16:28:54.774Z,64.22
2023-02-15T16:31:26.458Z,59.33
2023-02-15T16:33:56.915Z,56.38
2023-02-15T16:36:27.870Z,54.05
2023-02-15T16:38:58.000Z,50.08
2023-02-15T16:41:26.774Z,53.88
2023-02-15T16:43:58.013Z,51.83
2023-02-15T16:46:32.310Z,49.33
2023-02-15T16:49:06.784Z,52.83
2023-02-15T16:51:35.581Z,51.05
2023-02-15T16:54:08.935Z,53.47
2023-02-15T16:56:37.462Z,56.10
2023-02-15T16:59:04.563Z,63.28
2023-02-15T17:01:33.759Z,55.35
2023-02-15T17:04:13.372Z,53.53
2023-02-15T17:06:40.522Z,58.55
2023-02-15T17:09:19.444Z,56.63
2023-02-15T17:11:46.706Z,53.55
2023-02-15T17:14:21.775Z,59.22
2023-02-15T17:16:52.865Z,57.22
2023-02-15T17:19:27.478Z,54.78
2023-02-15T17:21:57.554Z,58.50
2023-02-15T17:24:34.844Z,55.92
2023-02-15T17:27:15.543Z,53.08
2023-02-15T17:29:53.404Z,56.10
2023-02-15T17:32:23.392Z,64.25
2023-02-15T17:34:58.106Z,59.35
2023-02-15T17:37:26.632Z,62.28
2023-02-15T17:39:54.089Z,68.60
2023-02-15T17:42:21.255Z,58.42
2023-02-15T17:44:49.185Z,62.45
2023-02-15T17:47:25.695Z,54.13
2023-02-15T17:49:54.184Z,54.47
2023-02-15T17:52:21.122Z,58.10
2023-02-15T17:55:06.870Z,52.85
2023-02-15T17:57:35.844Z,57.47
2023-02-15T18:00:21.425Z,52.80
2023-02-15T18:03:07.131Z,52.42
2023-02-15T18:05:52.646Z,57.22
2023-02-15T18:08:42.119Z,61.40
2023-02-15T18:11:29.738Z,53.30
2023-02-15T18:14:01.313Z,58.40
2023-02-15T18:16:31.364Z,56.75
2023-02-15T18:18:58.498Z,55.17
2023-02-15T18:21:26.171Z,60.70
2023-02-15T18:23:53.849Z,57.17
2023-02-15T18:26:24.433Z,62.60
2023-02-15T18:28:52.298Z,61.25
2023-02-15T18:31:21.035Z,62.80
2023-02-15T18:33:59.663Z,56.92
2023-02-15T18:36:30.648Z,63.88
2023-02-15T18:38:58.131Z,66.85
2023-02-15T18:41:25.750Z,60.15
2023-02-15T18:43:54.616Z,59.00
2023-02-15T18:46:22.238Z,59.97
2023-02-15T18:48:49.303Z,64.05
2023-02-15T18:51:24.092Z,61.00
2023-02-15T18:53:53.041Z,58.17
2023-02-15T18:56:22.919Z,57.45
2023-02-15T18:58:50.100Z,56.88
2023-02-15T19:01:20.094Z,64.28
2023-02-15T19:03:49.164Z,61.58
2023-02-15T19:06:21.250Z,58.83
2023-02-15T19:08:50.903Z,68.55
2023-02-15T19:11:23.668Z,67.72
2023-02-15T19:13:52.357Z,60.50
2023-02-15T19:16:32.734Z,63.78
2023-02-15T19:19:00.593Z,55.30
2023-02-15T19:21:30.156Z,59.92
2023-02-15T19:24:01.904Z,56.75
2023-02-15T19:26:44.489Z,59.03
2023-02-15T19:29:14.837Z,67.10
2023-02-15T19:31:42.612Z,60.33
2023-02-15T19:34:16.004Z,57.83
2023-02-15T19:36:44.875Z,51.17
2023-02-15T19:39:23.174Z,60.95
2023-02-15T19:41:50.269Z,48.60
2023-02-15T19:44:18.387Z,53.83
2023-02-15T19:46:46.169Z,49.45
2023-02-15T19:49:13.666Z,50.25
2023-02-15T19:51:40.861Z,53.35
2023-02-15T19:54:20.911Z,50.50
2023-02-15T19:56:47.994Z,56.03
2023-02-15T19:59:23.430Z,52.08
2023-02-15T20:01:50.544Z,52.20
2023-02-15T20:04:17.671Z,53.63
2023-02-15T20:06:46.059Z,53.60
2023-02-15T20:09:35.429Z,53.53
2023-02-15T20:12:02.422Z,53.70
2023-02-15T20:14:29.811Z,49.78
2023-02-15T20:16:56.836Z,52.95
2023-02-15T20:19:23.832Z,54.13
2023-02-15T20:21:54.533Z,56.75
2023-02-15T20:24:24.681Z,54.47
2023-02-15T20:26:51.627Z,50.08
2023-02-15T20:29:19.849Z,56.40
2023-02-15T20:31:46.922Z,48.75
2023-02-15T20:34:14.453Z,49.33
2023-02-15T20:36:42.046Z,46.58
2023-02-15T20:39:16.300Z,52.80
2023-02-15T20:41:49.510Z,52.88
2023-02-15T20:44:20.941Z,54.53
2023-02-15T20:46:49.471Z,53.92
2023-02-15T20:49:16.487Z,46.85
2023-02-15T20:51:44.603Z,54.38
2023-02-15T20:54:20.458Z,51.88
2023-02-15T20:56:48.381Z,48.85
2023-02-15T20:59:24.447Z,50.63
2023-02-15T21:01:54.682Z,48.22
2023-02-15T21:04:31.437Z,52.80
2023-02-15T21:06:59.139Z,50.92
2023-02-15T21:09:26.549Z,51.55
2023-02-15T21:11:56.261Z,54.70
2023-02-15T21:14:26.209Z,58.05
2023-02-15T21:16:53.798Z,52.50
2023-02-15T21:19:24.819Z,49.60
2023-02-15T21:21:54.582Z,53.58
2023-02-15T21:24:32.389Z,55.10
2023-02-15T21:27:03.485Z,54.88
2023-02-15T21:29:31.449Z,59.70
2023-02-15T21:31:58.687Z,51.45
2023-02-15T21:34:25.992Z,55.80
2023-02-15T21:36:54.090Z,56.05
2023-02-15T21:39:26.421Z,62.75
2023-02-15T21:42:13.348Z,58.72
2023-02-15T21:44:59.600Z,55.47
2023-02-15T21:47:50.971Z,61.10
2023-02-15T21:50:41.670Z,58.78
2023-02-15T21:53:12.546Z,61.97
2023-02-15T21:55:39.529Z,63.13
2023-02-15T21:58:06.449Z,69.55
2023-02-15T22:00:33.986Z,58.28
2023-02-15T22:03:01.954Z,63.28
2023-02-15T22:05:32.250Z,60.63
2023-02-15T22:07:59.982Z,59.95
2023-02-15T22:10:31.852Z,58.67
2023-02-15T22:13:02.780Z,64.43
2023-02-15T22:15:37.052Z,53.40
2023-02-15T22:18:05.044Z,57.53
2023-02-15T22:20:32.214Z,61.97
2023-02-15T22:22:59.121Z,61.45
2023-02-15T22:25:27.258Z,53.92
2023-02-15T22:27:55.421Z,56.85
2023-02-15T22:30:32.283Z,67.10
2023-02-15T22:33:01.000Z,62.28
2023-02-15T22:35:30.438Z,54.80
2023-02-15T22:37:58.220Z,64.20
2023-02-15T22:40:34.570Z,55.78
2023-02-15T22:43:04.428Z,54.08
2023-02-15T22:45:32.822Z,60.90
2023-02-15T22:48:00.948Z,59.83
2023-02-15T22:50:32.944Z,62.10
2023-02-15T22:53:03.913Z,58.95
2023-02-15T22:55:36.273Z,61.05
2023-02-15T22:58:04.246Z,67.30
2023-02-15T23:00:40.651Z,58.88
2023-02-15T23:03:20.824Z,61.08
2023-02-15T23:05:48.179Z,60.58
2023-02-15T23:08:16.327Z,59.03
2023-02-15T23:10:45.169Z,64.20
2023-02-15T23:13:32.823Z,63.95
2023-02-15T23:16:02.268Z,65.30
2023-02-15T23:18:33.809Z,60.95
2023-02-15T23:21:15.772Z,60.00
2023-02-15T23:23:45.353Z,60.10
2023-02-15T23:26:22.165Z,71.60
2023-02-15T23:28:50.846Z,61.65
2023-02-15T23:31:30.842Z,62.85
2023-02-15T23:34:00.453Z,65.07
2023-02-15T23:36:37.252Z,63.10
2023-02-15T23:39:32.988Z,64.22
2023-02-15T23:42:05.790Z,59.67
2023-02-15T23:44:33.118Z,63.88
2023-02-15T23:47:00.100Z,58.97
2023-02-15T23:49:27.113Z,60.78
2023-02-15T23:51:55.847Z,62.63
2023-02-15T23:54:25.371Z,63.70
2023-02-15T23:57:02.001Z,63.67
2023-02-15T23:59:31.642Z,63.35
